Time;durP1;ratioP1;P1;durP2;ratioP2;P2;SDS_P1;SDS_P2;PMS_P1;PMS_P2;Temp;Humidity;BMP_temperature;BMP_pressure;BME280_temperature;BME280_humidity;BME280_pressure;Samples;Min_cycle;Max_cycle;Signal;HPM_P1;HPM_P2
2023/08/09 00:02:05;;;;;;;;;;;12.80;99.90;;;;;;5093279;28;19909;-85
2023/08/09 00:04:31;;;;;;;;;;;12.80;99.90;;;;;;5061118;28;19985;-85
2023/08/09 00:06:57;;;;;;;;;;;12.80;99.90;;;;;;5061111;28;19988;-85
2023/08/09 00:09:22;;;;;;;;;;;12.80;99.90;;;;;;5060067;28;19956;-86
2023/08/09 00:11:48;;;;;;;;;;;12.80;99.90;;;;;;5043096;28;19915;-85
2023/08/09 00:14:13;;;;;;;;;;;12.80;99.90;;;;;;5059868;28;20349;-85
2023/08/09 00:16:39;;;;;;;;;;;12.70;99.90;;;;;;5044177;28;19912;-85
2023/08/09 00:19:05;;;;;;;;;;;12.70;99.90;;;;;;5043235;28;19915;-85
2023/08/09 00:21:31;;;;;;;;;;;12.70;99.90;;;;;;5043697;28;20276;-85
2023/08/09 00:23:57;;;;;;;;;;;12.70;99.90;;;;;;5042150;28;19951;-85
2023/08/09 00:26:23;;;;;;;;;;;12.70;99.90;;;;;;5059899;28;19905;-85
2023/08/09 00:28:48;;;;;;;;;;;12.70;99.90;;;;;;5042976;28;19908;-85
2023/08/09 00:31:14;;;;;;;;;;;12.70;99.90;;;;;;5059814;28;19938;-85
2023/08/09 00:33:39;;;;;;;;;;;12.70;99.90;;;;;;5059722;28;19920;-85
2023/08/09 00:36:05;;;;;;;;;;;12.70;99.90;;;;;;5059554;28;19930;-85
2023/08/09 00:38:31;;;;;;;;;;;12.70;99.90;;;;;;5059193;28;19967;-85
2023/08/09 00:40:56;;;;;;;;;;;12.70;99.90;;;;;;5060011;28;20252;-86
2023/08/09 00:43:22;;;;;;;;;;;12.70;99.90;;;;;;5042616;28;19913;-85
2023/08/09 00:45:48;;;;;;;;;;;12.70;99.90;;;;;;5059327;28;19908;-85
2023/08/09 00:48:14;;;;;;;;;;;12.70;99.90;;;;;;5059526;28;19924;-85
2023/08/09 00:50:40;;;;;;;;;;;12.70;99.90;;;;;;5042986;28;19916;-85
2023/08/09 00:53:06;;;;;;;;;;;12.70;99.90;;;;;;5042897;28;19916;-85
2023/08/09 00:55:32;;;;;;;;;;;12.70;99.90;;;;;;5059758;28;19912;-85
2023/08/09 00:57:58;;;;;;;;;;;12.70;99.90;;;;;;5059798;28;19908;-85
2023/08/09 01:00:23;;;;;;;;;;;12.70;99.90;;;;;;5059548;28;20356;-86
2023/08/09 01:02:49;;;;;;;;;;;12.70;99.90;;;;;;5044982;28;19905;-85
2023/08/09 01:05:14;;;;;;;;;;;12.70;99.90;;;;;;5060375;28;19947;-86
2023/08/09 01:07:53;;;;;;;;;;;12.80;99.90;;;;;;5043121;28;19912;-85
2023/08/09 01:10:33;;;;;;;;;;;12.70;99.90;;;;;;5057757;28;19912;-85
2023/08/09 01:13:01;;;;;;;;;;;12.80;99.90;;;;;;5035805;28;20246;-85
2023/08/09 01:15:27;;;;;;;;;;;12.70;99.90;;;;;;5073006;28;20271;-85
2023/08/09 01:17:54;;;;;;;;;;;12.80;99.90;;;;;;5054866;28;20023;-85
2023/08/09 01:20:21;;;;;;;;;;;12.80;99.90;;;;;;5040029;28;19912;-85
2023/08/09 01:23:02;;;;;;;;;;;12.80;99.90;;;;;;5055579;28;20368;-85
2023/08/09 01:25:29;;;;;;;;;;;12.70;99.90;;;;;;5038896;28;19908;-86
2023/08/09 01:27:55;;;;;;;;;;;12.70;99.90;;;;;;5055947;28;19916;-85
2023/08/09 01:30:21;;;;;;;;;;;12.70;99.90;;;;;;5038986;28;19920;-85
2023/08/09 01:32:47;;;;;;;;;;;12.70;99.90;;;;;;5056183;28;19905;-85
2023/08/09 01:35:13;;;;;;;;;;;12.80;99.90;;;;;;5039164;28;19962;-86
2023/08/09 01:37:49;;;;;;;;;;;12.80;99.90;;;;;;5038942;28;20308;-86
2023/08/09 01:40:17;;;;;;;;;;;12.80;99.90;;;;;;5038933;28;19915;-85
2023/08/09 01:42:43;;;;;;;;;;;12.80;99.90;;;;;;5055851;28;19944;-85
2023/08/09 01:45:10;;;;;;;;;;;12.80;99.90;;;;;;5039162;28;19935;-85
2023/08/09 01:47:36;;;;;;;;;;;12.80;99.90;;;;;;5055764;28;19935;-85
2023/08/09 01:50:01;;;;;;;;;;;12.80;99.90;;;;;;5038271;28;20280;-86
2023/08/09 01:52:27;;;;;;;;;;;12.80;99.90;;;;;;5048237;28;19908;-85
2023/08/09 01:54:53;;;;;;;;;;;12.80;99.90;;;;;;5072472;28;19952;-86
2023/08/09 01:57:19;;;;;;;;;;;12.80;99.90;;;;;;5038699;28;19909;-86
2023/08/09 01:59:45;;;;;;;;;;;12.80;99.90;;;;;;5039820;28;19909;-86
2023/08/09 02:02:11;;;;;;;;;;;12.80;99.90;;;;;;5055313;28;19915;-86
2023/08/09 02:04:37;;;;;;;;;;;12.80;99.90;;;;;;5039043;28;19908;-86
2023/08/09 02:07:03;;;;;;;;;;;12.80;99.90;;;;;;5056333;28;19915;-85
2023/08/09 02:09:28;;;;;;;;;;;12.70;99.90;;;;;;5054811;28;20276;-86
2023/08/09 02:11:54;;;;;;;;;;;12.80;99.90;;;;;;5038637;28;19909;-86
2023/08/09 02:14:20;;;;;;;;;;;12.80;99.90;;;;;;5055465;28;20387;-86
2023/08/09 02:16:46;;;;;;;;;;;12.80;99.90;;;;;;5039108;28;19959;-86
2023/08/09 02:19:12;;;;;;;;;;;12.80;99.90;;;;;;5038306;28;19909;-85
2023/08/09 02:21:38;;;;;;;;;;;12.80;99.90;;;;;;5037953;28;19900;-85
2023/08/09 02:24:06;;;;;;;;;;;12.80;99.90;;;;;;5054783;28;19999;-86
2023/08/09 02:26:33;;;;;;;;;;;12.80;99.90;;;;;;5054303;28;20249;-86
2023/08/09 02:28:59;;;;;;;;;;;12.80;99.90;;;;;;5054156;28;19915;-86
2023/08/09 02:31:25;;;;;;;;;;;12.80;99.90;;;;;;5054510;28;20360;-85
2023/08/09 02:33:50;;;;;;;;;;;12.80;99.90;;;;;;5037226;28;20334;-86
2023/08/09 02:36:16;;;;;;;;;;;12.80;99.90;;;;;;5055644;28;19940;-86
2023/08/09 02:38:41;;;;;;;;;;;12.80;99.90;;;;;;5037243;28;20268;-85
2023/08/09 02:41:07;;;;;;;;;;;12.80;99.90;;;;;;5053912;28;19909;-86
2023/08/09 02:43:33;;;;;;;;;;;12.80;99.90;;;;;;5038334;28;19915;-86
2023/08/09 02:45:58;;;;;;;;;;;12.80;99.90;;;;;;5054403;28;19908;-87
2023/08/09 02:48:24;;;;;;;;;;;12.80;99.90;;;;;;5036812;28;19913;-87
2023/08/09 02:50:51;;;;;;;;;;;12.80;99.90;;;;;;5037346;28;19958;-86
2023/08/09 02:53:17;;;;;;;;;;;12.80;99.90;;;;;;5037063;28;19932;-86
2023/08/09 02:55:43;;;;;;;;;;;12.70;99.90;;;;;;5053541;28;19959;-87
2023/08/09 02:58:09;;;;;;;;;;;12.80;99.90;;;;;;5037164;28;20272;-86
2023/08/09 03:00:35;;;;;;;;;;;12.80;99.90;;;;;;5053390;28;19908;-85
2023/08/09 03:03:04;;;;;;;;;;;12.80;99.90;;;;;;5053961;28;20382;-86
2023/08/09 03:05:30;;;;;;;;;;;12.80;99.90;;;;;;5037139;28;20368;-86
2023/08/09 03:07:56;;;;;;;;;;;12.70;99.90;;;;;;5053811;28;19908;-86
2023/08/09 03:10:22;;;;;;;;;;;12.70;99.90;;;;;;5053802;28;20264;-86
2023/08/09 03:12:48;;;;;;;;;;;12.70;99.90;;;;;;5036794;28;19970;-85
2023/08/09 03:15:15;;;;;;;;;;;12.70;99.90;;;;;;5036608;28;19908;-85
2023/08/09 03:17:41;;;;;;;;;;;12.70;99.90;;;;;;5069674;28;19956;-85
2023/08/09 03:20:13;;;;;;;;;;;12.70;99.90;;;;;;5036495;28;19958;-85
2023/08/09 03:22:39;;;;;;;;;;;12.70;99.90;;;;;;5036622;28;20344;-86
2023/08/09 03:25:06;;;;;;;;;;;12.70;99.90;;;;;;5036728;28;19904;-85
2023/08/09 03:27:31;;;;;;;;;;;12.70;99.90;;;;;;5036330;28;19908;-85
2023/08/09 03:29:58;;;;;;;;;;;12.70;99.90;;;;;;5036276;28;19927;-85
2023/08/09 03:32:25;;;;;;;;;;;12.60;99.90;;;;;;5036394;28;20272;-85
2023/08/09 03:34:51;;;;;;;;;;;12.70;99.90;;;;;;5052685;28;19908;-85
2023/08/09 03:37:16;;;;;;;;;;;12.70;99.90;;;;;;5036125;28;19909;-85
2023/08/09 03:39:42;;;;;;;;;;;12.60;99.90;;;;;;5054518;28;20384;-85
2023/08/09 03:42:08;;;;;;;;;;;12.60;99.90;;;;;;5052956;28;19909;-84
2023/08/09 03:44:33;;;;;;;;;;;12.60;99.90;;;;;;5052741;28;19908;-85
2023/08/09 03:46:59;;;;;;;;;;;12.60;99.90;;;;;;5036031;28;20435;-85
2023/08/09 03:49:24;;;;;;;;;;;12.60;99.90;;;;;;5085884;28;19908;-85
2023/08/09 03:51:50;;;;;;;;;;;12.70;99.90;;;;;;5052451;28;20272;-85
2023/08/09 03:54:16;;;;;;;;;;;12.60;99.90;;;;;;5036074;28;19943;-85
2023/08/09 03:56:41;;;;;;;;;;;12.60;99.90;;;;;;5036217;28;19909;-85
2023/08/09 03:59:08;;;;;;;;;;;12.60;99.90;;;;;;5052885;28;20273;-85
2023/08/09 04:01:34;;;;;;;;;;;12.60;99.90;;;;;;5052486;28;19909;-85
2023/08/09 04:03:59;;;;;;;;;;;12.60;99.90;;;;;;5035956;28;19912;-85
2023/08/09 04:06:25;;;;;;;;;;;12.60;99.90;;;;;;5051460;28;20352;-85
2023/08/09 04:08:51;;;;;;;;;;;12.60;99.90;;;;;;5048751;28;19955;-85
2023/08/09 04:11:17;;;;;;;;;;;12.50;99.90;;;;;;5085016;28;19908;-85
2023/08/09 04:13:43;;;;;;;;;;;12.50;99.90;;;;;;5052415;28;20383;-86
2023/08/09 04:16:09;;;;;;;;;;;12.60;99.90;;;;;;5052587;28;20058;-85
2023/08/09 04:18:35;;;;;;;;;;;12.60;99.90;;;;;;5052346;28;20054;-86
2023/08/09 04:21:01;;;;;;;;;;;12.70;99.90;;;;;;5036120;28;19950;-86
2023/08/09 04:23:27;;;;;;;;;;;12.70;99.90;;;;;;5052558;28;19908;-86
2023/08/09 04:25:53;;;;;;;;;;;12.70;99.90;;;;;;5052561;28;19948;-86
2023/08/09 04:28:19;;;;;;;;;;;12.70;99.90;;;;;;5036017;28;19958;-85
2023/08/09 04:30:44;;;;;;;;;;;12.70;99.90;;;;;;5035730;28;19912;-86
2023/08/09 04:33:12;;;;;;;;;;;12.80;99.90;;;;;;5052473;28;20012;-85
2023/08/09 04:35:38;;;;;;;;;;;12.80;99.90;;;;;;5035674;28;19975;-85
2023/08/09 04:38:03;;;;;;;;;;;12.90;99.90;;;;;;5052674;28;19960;-86
2023/08/09 04:40:34;;;;;;;;;;;12.90;99.90;;;;;;5035590;28;19909;-85
2023/08/09 04:43:00;;;;;;;;;;;12.90;99.90;;;;;;5035736;28;19913;-86
2023/08/09 04:45:25;;;;;;;;;;;12.80;99.90;;;;;;5038170;28;19958;-85
2023/08/09 04:47:52;;;;;;;;;;;12.90;99.90;;;;;;5039629;28;19954;-85
2023/08/09 04:50:17;;;;;;;;;;;13.00;99.90;;;;;;5039336;28;19917;-86
2023/08/09 04:52:43;;;;;;;;;;;13.00;99.90;;;;;;5089545;28;20306;-85
2023/08/09 04:55:08;;;;;;;;;;;13.00;99.90;;;;;;5055604;28;20050;-85
2023/08/09 04:57:34;;;;;;;;;;;13.00;99.90;;;;;;5055790;28;19916;-84
2023/08/09 05:00:00;;;;;;;;;;;13.10;99.90;;;;;;5039019;28;19920;-85
2023/08/09 05:02:25;;;;;;;;;;;13.10;99.90;;;;;;5039459;28;19908;-86
2023/08/09 05:04:51;;;;;;;;;;;13.10;99.90;;;;;;5055502;28;19908;-86
2023/08/09 05:07:18;;;;;;;;;;;13.20;99.90;;;;;;5039529;28;19995;-85
2023/08/09 05:09:43;;;;;;;;;;;13.20;99.90;;;;;;5038805;28;21810;-86
2023/08/09 05:12:09;;;;;;;;;;;13.20;99.90;;;;;;5055944;28;19909;-85
2023/08/09 05:14:34;;;;;;;;;;;13.20;99.90;;;;;;5055487;28;19959;-85
2023/08/09 05:17:00;;;;;;;;;;;13.20;99.90;;;;;;5055632;28;19915;-85
2023/08/09 05:19:26;;;;;;;;;;;13.20;99.90;;;;;;5038916;28;19916;-85
2023/08/09 05:21:51;;;;;;;;;;;13.30;99.90;;;;;;5055265;28;19935;-85
2023/08/09 05:24:17;;;;;;;;;;;13.30;99.90;;;;;;5038722;28;20363;-85
2023/08/09 05:26:42;;;;;;;;;;;13.30;99.90;;;;;;5055335;28;19974;-85
2023/08/09 05:29:08;;;;;;;;;;;13.30;99.90;;;;;;5038705;28;19915;-85
2023/08/09 05:31:33;;;;;;;;;;;13.30;99.90;;;;;;5055023;28;19912;-84
2023/08/09 05:33:59;;;;;;;;;;;13.30;99.90;;;;;;5038280;28;19913;-85
2023/08/09 05:36:25;;;;;;;;;;;13.30;99.90;;;;;;5055483;28;19954;-85
2023/08/09 05:38:50;;;;;;;;;;;13.30;99.90;;;;;;5038517;28;19908;-85
2023/08/09 05:41:16;;;;;;;;;;;13.30;99.90;;;;;;5038322;28;19909;-85
2023/08/09 05:43:42;;;;;;;;;;;13.30;99.90;;;;;;5038460;28;19951;-86
2023/08/09 05:46:07;;;;;;;;;;;13.30;99.90;;;;;;5037961;28;19996;-86
2023/08/09 05:48:33;;;;;;;;;;;13.20;99.90;;;;;;5038229;28;20008;-87
2023/08/09 05:50:59;;;;;;;;;;;13.20;99.90;;;;;;5054726;28;20316;-86
2023/08/09 05:53:24;;;;;;;;;;;13.10;99.90;;;;;;5037953;28;19909;-86
2023/08/09 05:55:50;;;;;;;;;;;13.10;99.90;;;;;;5087215;28;19912;-86
2023/08/09 05:58:16;;;;;;;;;;;13.10;99.90;;;;;;5054482;28;19958;-85
2023/08/09 06:00:41;;;;;;;;;;;13.10;99.90;;;;;;5054360;28;19948;-86
2023/08/09 06:03:07;;;;;;;;;;;13.10;99.90;;;;;;5037794;28;19912;-86
2023/08/09 06:05:32;;;;;;;;;;;13.10;99.90;;;;;;5037759;28;20412;-86
2023/08/09 06:07:58;;;;;;;;;;;13.20;99.90;;;;;;5037892;28;19955;-86
2023/08/09 06:10:25;;;;;;;;;;;13.20;99.90;;;;;;5037761;28;20307;-85
2023/08/09 06:12:51;;;;;;;;;;;13.20;99.90;;;;;;5037442;28;20370;-86
2023/08/09 06:15:17;;;;;;;;;;;13.30;99.90;;;;;;5037666;28;19942;-86
2023/08/09 06:17:42;;;;;;;;;;;13.30;99.90;;;;;;5054084;28;19962;-86
2023/08/09 06:20:08;;;;;;;;;;;13.30;99.90;;;;;;5054334;28;20332;-86
2023/08/09 06:22:34;;;;;;;;;;;13.40;99.90;;;;;;5037168;28;19931;-85
2023/08/09 06:24:59;;;;;;;;;;;13.50;99.90;;;;;;5037508;28;19912;-85
2023/08/09 06:27:25;;;;;;;;;;;13.60;99.90;;;;;;5037578;28;19915;-85
2023/08/09 06:29:51;;;;;;;;;;;13.60;99.90;;;;;;5054151;28;19913;-86
2023/08/09 06:32:16;;;;;;;;;;;13.70;99.90;;;;;;5037140;28;20348;-85
2023/08/09 06:34:42;;;;;;;;;;;13.90;99.90;;;;;;5053746;28;20301;-85
2023/08/09 06:37:08;;;;;;;;;;;14.00;99.90;;;;;;5037390;28;19954;-85
2023/08/09 06:39:36;;;;;;;;;;;14.20;99.90;;;;;;5054022;28;19908;-85
2023/08/09 06:42:02;;;;;;;;;;;14.50;99.90;;;;;;5036908;28;19908;-85
2023/08/09 06:44:28;;;;;;;;;;;14.50;99.90;;;;;;5053666;28;20039;-85
2023/08/09 06:46:54;;;;;;;;;;;14.60;99.90;;;;;;5036954;28;19909;-85
2023/08/09 06:49:21;;;;;;;;;;;14.60;99.90;;;;;;5037133;28;19920;-86
2023/08/09 06:51:47;;;;;;;;;;;14.60;99.90;;;;;;5053417;28;19920;-86
2023/08/09 06:54:13;;;;;;;;;;;14.60;99.90;;;;;;5053560;28;20278;-86
2023/08/09 06:56:38;;;;;;;;;;;14.60;99.90;;;;;;5037135;28;19912;-86
2023/08/09 06:59:04;;;;;;;;;;;14.50;99.90;;;;;;5053774;28;19915;-86
2023/08/09 07:01:30;;;;;;;;;;;14.50;99.90;;;;;;5036835;28;19913;-86
2023/08/09 07:03:56;;;;;;;;;;;14.60;99.90;;;;;;5053366;28;19935;-86
2023/08/09 07:06:22;;;;;;;;;;;14.70;99.90;;;;;;5053615;28;19909;-86
2023/08/09 07:08:48;;;;;;;;;;;14.80;99.90;;;;;;5053289;28;19911;-88
2023/08/09 07:11:14;;;;;;;;;;;14.90;99.90;;;;;;5053234;28;19920;-87
2023/08/09 07:13:40;;;;;;;;;;;15.00;99.90;;;;;;5053195;28;19920;-86
2023/08/09 07:16:05;;;;;;;;;;;15.20;99.90;;;;;;5053560;28;20264;-86
2023/08/09 07:18:31;;;;;;;;;;;15.20;99.90;;;;;;5053090;28;19916;-87
2023/08/09 07:20:57;;;;;;;;;;;15.20;99.90;;;;;;5036380;28;20427;-87
2023/08/09 07:23:24;;;;;;;;;;;15.30;99.90;;;;;;5036249;28;19908;-86
2023/08/09 07:25:50;;;;;;;;;;;15.40;99.90;;;;;;5036783;28;19908;-87
2023/08/09 07:28:15;;;;;;;;;;;15.40;99.90;;;;;;5053356;28;20272;-87
2023/08/09 07:30:41;;;;;;;;;;;15.30;99.90;;;;;;5052986;28;19909;-87
2023/08/09 07:33:06;;;;;;;;;;;15.20;99.90;;;;;;5036399;28;20357;-86
2023/08/09 07:35:32;;;;;;;;;;;15.20;99.90;;;;;;5036188;28;19915;-87
2023/08/09 07:37:58;;;;;;;;;;;15.20;99.90;;;;;;5052742;28;20011;-86
2023/08/09 07:40:24;;;;;;;;;;;15.20;99.90;;;;;;5036216;28;19909;-87
2023/08/09 07:42:49;;;;;;;;;;;15.30;99.90;;;;;;5086216;28;19967;-86
2023/08/09 07:45:15;;;;;;;;;;;15.30;99.90;;;;;;5035899;28;20340;-87
2023/08/09 07:47:41;;;;;;;;;;;15.30;99.90;;;;;;5052607;28;19909;-87
2023/08/09 07:50:07;;;;;;;;;;;15.30;99.90;;;;;;5036008;28;19913;-85
2023/08/09 07:52:33;;;;;;;;;;;15.20;99.90;;;;;;5052804;28;20303;-86
2023/08/09 07:54:58;;;;;;;;;;;15.10;99.90;;;;;;5052347;28;19919;-87
2023/08/09 07:57:24;;;;;;;;;;;15.00;99.90;;;;;;5054572;28;20416;-86
2023/08/09 07:59:50;;;;;;;;;;;15.10;99.90;;;;;;5036123;28;19908;-86
2023/08/09 08:02:16;;;;;;;;;;;15.10;99.90;;;;;;5053592;28;20272;-87
2023/08/09 08:04:42;;;;;;;;;;;15.10;99.90;;;;;;5053607;28;19912;-88
2023/08/09 08:07:11;;;;;;;;;;;15.00;99.90;;;;;;5044163;28;19955;-85
2023/08/09 08:09:40;;;;;;;;;;;15.00;99.90;;;;;;5035632;28;19912;-86
2023/08/09 08:12:07;;;;;;;;;;;14.90;99.90;;;;;;5069245;28;19995;-86
2023/08/09 08:14:32;;;;;;;;;;;14.90;99.90;;;;;;5035822;28;19904;-85
2023/08/09 08:16:58;;;;;;;;;;;14.90;99.90;;;;;;5052250;28;19909;-85
2023/08/09 08:19:23;;;;;;;;;;;15.00;99.90;;;;;;5037150;28;19916;-85
2023/08/09 08:21:49;;;;;;;;;;;15.20;99.90;;;;;;5056529;28;19908;-85
2023/08/09 08:24:15;;;;;;;;;;;15.20;99.90;;;;;;5039446;28;20003;-86
2023/08/09 08:26:40;;;;;;;;;;;15.30;99.90;;;;;;5057575;28;19930;-85
2023/08/09 08:29:06;;;;;;;;;;;15.30;99.90;;;;;;5057318;28;19915;-86
2023/08/09 08:31:32;;;;;;;;;;;15.20;99.90;;;;;;5039951;28;19912;-85
2023/08/09 08:33:58;;;;;;;;;;;15.00;99.90;;;;;;5039431;28;19999;-86
2023/08/09 08:36:23;;;;;;;;;;;14.90;99.90;;;;;;5056150;28;19940;-85
2023/08/09 08:38:49;;;;;;;;;;;14.90;99.90;;;;;;5055976;28;19915;-85
2023/08/09 08:41:15;;;;;;;;;;;14.90;99.90;;;;;;5039416;28;20011;-85
2023/08/09 08:43:41;;;;;;;;;;;14.90;99.90;;;;;;5055829;28;19915;-85
2023/08/09 08:46:08;;;;;;;;;;;15.00;99.90;;;;;;5056136;28;19924;-86
2023/08/09 08:48:35;;;;;;;;;;;15.10;99.90;;;;;;5039087;28;19958;-85
2023/08/09 08:51:01;;;;;;;;;;;15.00;99.90;;;;;;5089302;28;19912;-85
2023/08/09 08:53:27;;;;;;;;;;;14.90;99.90;;;;;;5038862;28;19909;-85
2023/08/09 08:55:52;;;;;;;;;;;15.00;99.90;;;;;;5055670;28;19913;-85
2023/08/09 08:58:18;;;;;;;;;;;15.00;99.90;;;;;;5055559;28;19909;-85
2023/08/09 09:00:45;;;;;;;;;;;15.00;99.90;;;;;;5039018;28;19909;-85
2023/08/09 09:03:10;;;;;;;;;;;15.00;99.90;;;;;;5038864;28;19915;-86
2023/08/09 09:05:36;;;;;;;;;;;15.00;99.90;;;;;;5039370;28;20271;-85
2023/08/09 09:08:02;;;;;;;;;;;14.90;99.90;;;;;;5038721;28;19912;-85
2023/08/09 09:10:28;;;;;;;;;;;15.00;99.90;;;;;;5038816;28;19912;-85
2023/08/09 09:12:55;;;;;;;;;;;15.00;99.90;;;;;;5038887;28;19905;-85
2023/08/09 09:15:21;;;;;;;;;;;15.00;99.90;;;;;;5038814;28;19915;-85
2023/08/09 09:17:48;;;;;;;;;;;15.00;99.90;;;;;;5038579;28;20007;-85
2023/08/09 09:20:24;;;;;;;;;;;14.90;99.90;;;;;;5056268;28;19908;-86
2023/08/09 09:22:50;;;;;;;;;;;14.90;99.90;;;;;;5068610;28;20077;-85
2023/08/09 09:25:17;;;;;;;;;;;14.90;99.90;;;;;;5038383;28;20411;-85
2023/08/09 09:27:45;;;;;;;;;;;15.00;99.90;;;;;;5055188;28;20000;-85
2023/08/09 09:30:14;;;;;;;;;;;15.00;99.90;;;;;;5054573;28;19920;-85
2023/08/09 09:32:41;;;;;;;;;;;14.90;99.90;;;;;;5054418;28;19908;-85
2023/08/09 09:35:08;;;;;;;;;;;15.00;99.90;;;;;;5038094;28;19967;-85
2023/08/09 09:37:35;;;;;;;;;;;15.00;99.90;;;;;;5055294;28;19970;-85
2023/08/09 09:40:00;;;;;;;;;;;14.90;99.90;;;;;;5038200;28;19912;-85
2023/08/09 09:42:33;;;;;;;;;;;14.90;99.90;;;;;;5051903;28;20388;-85
2023/08/09 09:45:08;;;;;;;;;;;14.80;99.90;;;;;;5085849;28;19909;-86
2023/08/09 09:47:37;;;;;;;;;;;14.80;99.90;;;;;;5038186;28;19916;-86
2023/08/09 09:50:04;;;;;;;;;;;14.80;99.90;;;;;;5038304;28;19913;-85
2023/08/09 09:52:31;;;;;;;;;;;14.90;99.90;;;;;;5037983;28;19913;-85
2023/08/09 09:54:57;;;;;;;;;;;14.90;99.90;;;;;;5037840;28;19964;-86
2023/08/09 09:57:23;;;;;;;;;;;14.90;99.90;;;;;;5054889;28;20278;-85
2023/08/09 09:59:48;;;;;;;;;;;14.90;99.90;;;;;;5037616;28;19909;-85
2023/08/09 10:02:15;;;;;;;;;;;15.00;99.90;;;;;;5088313;28;20435;-86
2023/08/09 10:04:43;;;;;;;;;;;15.10;99.90;;;;;;5054451;28;19909;-86
2023/08/09 10:07:09;;;;;;;;;;;15.40;99.90;;;;;;5087797;28;19940;-85
2023/08/09 10:09:34;;;;;;;;;;;15.90;99.90;;;;;;5037572;28;19948;-85
2023/08/09 10:12:03;;;;;;;;;;;16.50;99.90;;;;;;5054100;28;19967;-85
2023/08/09 10:14:30;;;;;;;;;;;16.80;99.90;;;;;;5054087;28;19908;-85
2023/08/09 10:16:56;;;;;;;;;;;17.00;99.90;;;;;;5054078;28;19908;-85
2023/08/09 10:19:23;;;;;;;;;;;17.60;99.90;;;;;;5054185;28;19909;-86
2023/08/09 10:21:52;;;;;;;;;;;18.50;99.90;;;;;;5037556;28;19916;-86
2023/08/09 10:24:18;;;;;;;;;;;18.60;99.90;;;;;;5037260;28;19913;-86
2023/08/09 10:26:46;;;;;;;;;;;18.90;99.90;;;;;;5037738;28;20267;-85
2023/08/09 10:29:13;;;;;;;;;;;19.20;99.90;;;;;;5054039;28;19916;-87
2023/08/09 10:31:50;;;;;;;;;;;19.50;99.90;;;;;;5054414;28;19913;-85
2023/08/09 10:34:16;;;;;;;;;;;20.00;99.90;;;;;;5070573;28;19909;-85
2023/08/09 10:36:43;;;;;;;;;;;19.30;99.90;;;;;;5037734;28;19911;-86
2023/08/09 10:39:10;;;;;;;;;;;18.80;99.90;;;;;;5054155;28;19908;-87
2023/08/09 10:41:36;;;;;;;;;;;18.50;99.90;;;;;;5037662;28;20352;-86
2023/08/09 10:44:03;;;;;;;;;;;18.50;99.90;;;;;;5070399;28;19912;-86
2023/08/09 10:46:32;;;;;;;;;;;18.50;99.90;;;;;;5038183;28;19914;-86
2023/08/09 10:49:03;;;;;;;;;;;18.80;99.90;;;;;;5053984;28;19931;-85
2023/08/09 10:51:29;;;;;;;;;;;18.80;99.90;;;;;;5037417;28;20275;-86
2023/08/09 10:53:54;;;;;;;;;;;18.70;99.90;;;;;;5054078;28;19908;-86
2023/08/09 10:56:44;;;;;;;;;;;18.60;99.90;;;;;;5054456;28;19921;-86
2023/08/09 10:59:13;;;;;;;;;;;18.80;99.90;;;;;;5037527;28;19958;-85
2023/08/09 11:01:40;;;;;;;;;;;19.60;99.90;;;;;;5064650;28;19908;-85
2023/08/09 11:04:09;;;;;;;;;;;19.80;99.90;;;;;;5054759;28;19908;-85
2023/08/09 11:06:37;;;;;;;;;;;19.90;99.90;;;;;;5053419;28;19936;-84
2023/08/09 11:09:08;;;;;;;;;;;19.40;99.90;;;;;;5053680;28;20319;-85
2023/08/09 11:11:34;;;;;;;;;;;19.30;99.90;;;;;;5037322;28;19912;-85
2023/08/09 11:14:01;;;;;;;;;;;19.00;99.90;;;;;;5037123;28;19912;-86
2023/08/09 11:16:27;;;;;;;;;;;18.60;99.90;;;;;;5058773;28;19943;-87
2023/08/09 11:19:03;;;;;;;;;;;18.20;99.90;;;;;;5082483;28;19912;-86
2023/08/09 11:21:49;;;;;;;;;;;18.10;99.90;;;;;;5053616;28;19992;-86
2023/08/09 11:24:16;;;;;;;;;;;18.20;99.90;;;;;;5052659;28;19991;-87
2023/08/09 11:26:46;;;;;;;;;;;18.30;99.90;;;;;;5036779;28;19905;-86
2023/08/09 11:29:12;;;;;;;;;;;18.50;99.90;;;;;;5036629;28;20272;-87
2023/08/09 11:31:44;;;;;;;;;;;18.60;99.90;;;;;;5036982;28;19912;-87
2023/08/09 11:34:10;;;;;;;;;;;19.10;99.90;;;;;;5084523;28;19947;-87
2023/08/09 11:36:36;;;;;;;;;;;19.30;99.90;;;;;;5053091;28;19908;-86
2023/08/09 11:39:04;;;;;;;;;;;19.50;99.90;;;;;;5053519;28;19915;-86
2023/08/09 11:41:39;;;;;;;;;;;19.50;99.90;;;;;;5069881;28;19913;-86
2023/08/09 11:44:05;;;;;;;;;;;19.70;99.90;;;;;;5054445;28;20264;-86
2023/08/09 11:46:31;;;;;;;;;;;19.90;99.90;;;;;;5036925;28;19909;-87
2023/08/09 11:49:01;;;;;;;;;;;19.90;99.90;;;;;;5070096;28;19996;-86
2023/08/09 11:51:29;;;;;;;;;;;19.90;99.90;;;;;;5052907;28;19913;-86
2023/08/09 11:53:54;;;;;;;;;;;20.00;99.90;;;;;;5052480;28;19915;-86
2023/08/09 11:56:23;;;;;;;;;;;20.10;99.90;;;;;;5037078;28;20418;-86
2023/08/09 11:58:52;;;;;;;;;;;20.00;99.90;;;;;;5054331;28;19909;-87
2023/08/09 12:01:22;;;;;;;;;;;19.90;99.90;;;;;;5053073;28;19963;-86
2023/08/09 12:03:52;;;;;;;;;;;19.90;99.90;;;;;;5036414;28;20420;-86
2023/08/09 12:06:36;;;;;;;;;;;19.80;99.90;;;;;;5036391;28;19908;-87
2023/08/09 12:09:20;;;;;;;;;;;19.60;99.90;;;;;;5036386;28;19955;-86
2023/08/09 12:11:46;;;;;;;;;;;19.50;99.90;;;;;;5063265;28;19912;-86
2023/08/09 12:14:12;;;;;;;;;;;19.60;99.90;;;;;;5036340;28;19909;-87
2023/08/09 12:16:58;;;;;;;;;;;19.70;99.90;;;;;;5036651;28;20015;-86
2023/08/09 12:19:24;;;;;;;;;;;19.90;99.90;;;;;;5036450;28;20000;-87
2023/08/09 12:21:50;;;;;;;;;;;20.30;99.90;;;;;;5036671;28;19952;-86
2023/08/09 12:24:15;;;;;;;;;;;20.90;99.90;;;;;;5036307;28;19910;-87
2023/08/09 12:26:41;;;;;;;;;;;20.70;99.90;;;;;;5054343;28;20359;-87
2023/08/09 12:29:09;;;;;;;;;;;20.50;99.90;;;;;;5036426;28;19909;-88
2023/08/09 12:31:36;;;;;;;;;;;20.40;99.90;;;;;;5053229;28;20279;-87
2023/08/09 12:34:02;;;;;;;;;;;20.50;99.90;;;;;;5052680;28;19905;-87
2023/08/09 12:36:29;;;;;;;;;;;20.60;99.90;;;;;;5053000;28;19975;-87
2023/08/09 12:38:55;;;;;;;;;;;20.40;99.90;;;;;;5036694;28;19916;-86
2023/08/09 12:41:21;;;;;;;;;;;20.40;99.90;;;;;;5052775;28;19909;-87
2023/08/09 12:43:46;;;;;;;;;;;20.30;99.90;;;;;;5036092;28;20468;-87
2023/08/09 12:46:12;;;;;;;;;;;20.20;99.90;;;;;;5036205;28;19909;-87
2023/08/09 12:48:38;;;;;;;;;;;20.50;99.90;;;;;;5052033;28;19915;-87
2023/08/09 12:51:03;;;;;;;;;;;20.70;99.90;;;;;;5035782;28;19913;-88
2023/08/09 12:53:29;;;;;;;;;;;20.90;99.90;;;;;;5035574;28;20408;-88
2023/08/09 12:55:55;;;;;;;;;;;20.60;99.90;;;;;;5036121;28;19982;-86
2023/08/09 12:58:21;;;;;;;;;;;20.10;99.90;;;;;;5053909;28;19909;-88
2023/08/09 13:00:46;;;;;;;;;;;19.60;99.90;;;;;;5036271;28;19909;-87
2023/08/09 13:03:12;;;;;;;;;;;19.20;99.90;;;;;;5035769;28;19908;-87
2023/08/09 13:05:38;;;;;;;;;;;18.80;99.90;;;;;;5042194;28;19904;-88
2023/08/09 13:08:04;;;;;;;;;;;18.50;99.90;;;;;;5056803;28;19954;-87
2023/08/09 13:10:30;;;;;;;;;;;18.20;99.90;;;;;;5056151;28;20128;-86
2023/08/09 13:12:55;;;;;;;;;;;18.30;99.90;;;;;;5046552;28;19962;-87
2023/08/09 13:15:39;;;;;;;;;;;18.80;99.90;;;;;;5056062;28;19931;-87
2023/08/09 13:18:05;;;;;;;;;;;19.10;99.90;;;;;;5069131;28;19951;-86
2023/08/09 13:20:30;;;;;;;;;;;19.40;99.90;;;;;;5041843;28;19915;-87
2023/08/09 13:22:56;;;;;;;;;;;20.00;99.90;;;;;;5056144;28;19905;-87
2023/08/09 13:25:22;;;;;;;;;;;20.10;99.90;;;;;;5039370;28;19964;-87
2023/08/09 13:27:48;;;;;;;;;;;20.10;99.90;;;;;;5055433;28;19999;-87
2023/08/09 13:30:14;;;;;;;;;;;19.90;99.90;;;;;;5056146;28;19968;-87
2023/08/09 13:32:42;;;;;;;;;;;20.00;99.90;;;;;;5056635;28;19912;-87
2023/08/09 13:35:09;;;;;;;;;;;20.00;99.90;;;;;;5040012;28;19905;-87
2023/08/09 13:37:38;;;;;;;;;;;19.90;99.90;;;;;;5058101;28;19926;-86
2023/08/09 13:40:04;;;;;;;;;;;19.60;99.90;;;;;;5039268;28;19952;-87
2023/08/09 13:43:06;;;;;;;;;;;19.30;99.90;;;;;;5055755;28;19908;-87
2023/08/09 13:45:32;;;;;;;;;;;19.50;99.90;;;;;;5039008;28;19915;-87
2023/08/09 13:47:58;;;;;;;;;;;19.80;99.90;;;;;;5039038;28;20380;-87
2023/08/09 13:50:23;;;;;;;;;;;19.90;99.90;;;;;;5055794;28;19912;-87
2023/08/09 13:52:49;;;;;;;;;;;19.80;99.90;;;;;;5039735;28;20378;-88
2023/08/09 13:55:14;;;;;;;;;;;19.80;99.90;;;;;;5055711;28;19913;-87
2023/08/09 13:57:40;;;;;;;;;;;19.70;99.90;;;;;;5072169;28;19920;-87
2023/08/09 14:00:07;;;;;;;;;;;19.60;99.90;;;;;;5038834;28;20287;-87
2023/08/09 14:02:36;;;;;;;;;;;19.50;99.90;;;;;;5056862;28;19916;-89
2023/08/09 14:05:01;;;;;;;;;;;19.80;99.90;;;;;;5055682;28;20267;-87
2023/08/09 14:07:52;;;;;;;;;;;19.80;99.90;;;;;;5055434;28;19909;-87
2023/08/09 14:10:18;;;;;;;;;;;20.10;99.90;;;;;;5038370;28;19913;-87
2023/08/09 14:12:43;;;;;;;;;;;20.30;99.90;;;;;;5053555;28;19916;-87
2023/08/09 14:15:09;;;;;;;;;;;20.10;99.90;;;;;;5055314;28;19908;-87